Tropical Cyclones
[Index]
Main Index Home Page Stock Weather Photos Extreme Storms Discussion Storm News and Storm Chasing Reports Tropical Cyclones / Hurricanes / Typhoons Weather Data and Links Wild Fires / Bushfires Weather Observation Techniques Weather Picture Catalogue Tornado Pictures and Reports Stock Video Footage and DVDs for sale
Season 1978-1979 Tropical Cyclone MELI Track Map
Season 1978-1979 Summaries: [BoM-AU] [JTWC-AU] [JTWC-SIO] [JTWC-SPAC] [JTWC-SH]
<<- Previous TC | JTWC 1978-1979 Season | Next TC ->>

click for intensity scale information  Lat/long Grid: Show Hide

 Date Labels: Show Hide

Joint Typhoon Warning Centre Cyclone Data

Name: MELI

24 Mar 1979 00:00 UTC to 31 Mar 1979 12:00 UTC

    date/time    lat    long     hPa   cat  kts
1979-03-24 00   15.0   176.0W                 25          
1979-03-24 06   15.2   175.5W                 30          
1979-03-24 12   15.4   175.0W                 35          
1979-03-24 18   15.7   174.5W                 35          
1979-03-25 00   16.0   174.2W           1     40          
1979-03-25 06   16.5   174.2W           1     50          
1979-03-25 12   17.1   174.5W           2     60          
1979-03-25 18   17.4   174.9W           3     80          
1979-03-26 00   17.5   175.5W           3     95          
1979-03-26 06   17.3   176.2W           4    105          
1979-03-26 12   17.2   177.1W           4    110          
1979-03-26 18   17.6   178.1W           4    115          
1979-03-27 00   18.0   179.2W           4    115          
1979-03-27 06   18.1   179.7            4    115          
1979-03-27 12   18.5   178.5            4    110          
1979-03-27 18   19.2   177.4            4    110          
1979-03-28 00   20.0   176.2            4    110          
1979-03-28 06   20.7   175.4            4    100          
1979-03-28 12   21.5   175.0            3     90          
1979-03-28 18   22.3   174.8            3     80          
1979-03-29 00   23.3   175.0            2     70          
1979-03-29 06   24.3   175.5            2     60          
1979-03-29 12   25.5   176.6            1     50          
1979-03-29 18   27.0   178.4            1     50          
1979-03-30 00   28.5   179.5W           1     50          
1979-03-30 06   29.7   177.4W           1     50          
1979-03-30 12   31.0   175.0W           1     50          
1979-03-30 18   32.8   171.8W           1     45          
1979-03-31 00   35.0   168.0W           1     45          
1979-03-31 06   37.4   164.1W                             
1979-03-31 12   40.0   160.0W                             
Winds are 1-min average.

Tropical cyclone tracks developed by Michael Bath using data from the Joint Typhoon Warning Centre Best Tracks and Google Maps.


[Australian Severe Weather index] [Copyright Notice] [Email Contacts] [Search This Site] [Privacy Policy]
Document: tropical_cyclone_meli.htm Updated: 18 September 2016